This is the latest recevied weather packets stored in our database for station/object YO4ISC-13. If no packets are shown the sender has not sent any weather packets the latest 1 day(s).
| Time | Temp. | Humidity | Pressure | Rain* | Wind** | Luminosity | Snow |
|---|---|---|---|---|---|---|---|
| 1777964402 | 16.67° C | 46% | 1018 hPa | - | 1.79 m/s, 78° | - | - |
| 1777963802 | 16.11° C | 47% | 1018 hPa | - | 2.68 m/s, 69° | - | - |
| 1777963201 | 15.56° C | 51% | 1018 hPa | - | 1.34 m/s, 72° | - | - |
| 1777962602 | 15.56° C | 51% | 1018 hPa | - | 3.13 m/s, 36° | - | - |
| 1777962002 | 15° C | 54% | 1018 hPa | - | 2.68 m/s, 56° | - | - |
| 1777961401 | 14.44° C | 58% | 1018 hPa | - | 2.24 m/s, 59° | - | - |
| 1777960803 | 14.44° C | 56% | 1018 hPa | - | 2.24 m/s, 53° | - | - |
| 1777960202 | 13.89° C | 59% | 1018 hPa | - | 3.13 m/s, 61° | - | - |
| 1777959602 | 13.89° C | 59% | 1018 hPa | - | 2.24 m/s, 22° | - | - |
| 1777959001 | 13.33° C | 62% | 1018 hPa | - | 1.79 m/s, 42° | - | - |
| 1777958402 | 12.78° C | 62% | 1018 hPa | - | 1.79 m/s, 22° | - | - |
| 1777957801 | 11.67° C | 63% | 1018 hPa | - | 1.79 m/s, 13° | - | - |
| 1777957202 | 10.56° C | 66% | 1018 hPa | - | 0.89 m/s, 3° | - | - |
| 1777956601 | 10° C | 67% | 1017 hPa | - | 1.79 m/s, 349° | - | - |
| 1777956002 | 8.89° C | 70% | 1017 hPa | - | 0.89 m/s, 356° | - | - |
| 1777955402 | 8.33° C | 70% | 1017 hPa | - | 1.79 m/s, 0° | - | - |
| 1777954802 | 7.78° C | 71% | 1017 hPa | - | 0.45 m/s, 2° | - | - |
| 1777954202 | 7.22° C | 72% | 1017 hPa | - | 0.89 m/s, 7° | - | - |
| 1777953602 | 6.67° C | 74% | 1017 hPa | - | 1.79 m/s, 5° | - | - |
| 1777953002 | 5.56° C | 75% | 1017 hPa | - | 1.34 m/s, 21° | - | - |
| 1777952401 | 5° C | 77% | 1017 hPa | - | 0.89 m/s, 354° | - | - |
| 1777951802 | 4.44° C | 78% | 1017 hPa | - | 3.13 m/s, 4° | - | - |
| 1777951201 | 4.44° C | 79% | 1017 hPa | - | 3.13 m/s, 0° | - | - |
| 1777950602 | 4.44° C | 79% | 1017 hPa | - | 2.24 m/s, 356° | - | - |
| 1777950001 | 4.44° C | 79% | 1017 hPa | - | 2.24 m/s, 2° | - | - |
* Rain since midnight (hover to see other rain measurements)
** Current wind speed in m/s (hover to see current wind gust speed)